createdAt,value
2022-12-14T00:01:16.115Z,57.05
2022-12-14T00:03:43.112Z,56.99
2022-12-14T00:06:23.733Z,57.25
2022-12-14T00:08:52.706Z,57.05
2022-12-14T00:11:23.243Z,57.19
2022-12-14T00:14:05.011Z,57.40
2022-12-14T00:16:34.773Z,56.99
2022-12-14T00:19:05.710Z,57.05
2022-12-14T00:21:32.546Z,56.99
2022-12-14T00:24:01.048Z,57.15
2022-12-14T00:26:34.476Z,56.81
2022-12-14T00:29:01.961Z,56.65
2022-12-14T00:31:29.724Z,56.76
2022-12-14T00:33:56.985Z,56.49
2022-12-14T00:36:25.189Z,56.83
2022-12-14T00:38:54.806Z,56.90
2022-12-14T00:41:23.080Z,56.67
2022-12-14T00:43:50.093Z,56.97
2022-12-14T00:46:18.284Z,56.90
2022-12-14T00:48:45.797Z,57.20
2022-12-14T00:51:15.236Z,57.26
2022-12-14T00:53:43.094Z,56.95
2022-12-14T00:56:11.210Z,56.98
2022-12-14T00:58:38.299Z,56.89
2022-12-14T01:01:10.384Z,57.04
2022-12-14T01:03:37.483Z,56.94
2022-12-14T01:06:04.979Z,57.00
2022-12-14T01:08:35.983Z,57.26
2022-12-14T01:11:06.985Z,56.95
2022-12-14T01:13:35.981Z,57.02
2022-12-14T01:16:04.275Z,56.68
2022-12-14T01:18:33.143Z,56.58
2022-12-14T01:21:09.097Z,56.36
2022-12-14T01:23:35.781Z,56.78
2022-12-14T01:26:02.857Z,56.62
2022-12-14T01:28:30.102Z,56.21
2022-12-14T01:30:57.302Z,56.64
2022-12-14T01:33:24.811Z,56.28
2022-12-14T01:35:51.781Z,56.55
2022-12-14T01:38:18.392Z,56.27
2022-12-14T01:40:46.052Z,56.58
2022-12-14T01:43:16.121Z,56.47
2022-12-14T01:45:45.248Z,56.59
2022-12-14T01:48:13.511Z,56.68
2022-12-14T01:50:43.823Z,56.25
2022-12-14T01:53:16.580Z,56.50
2022-12-14T01:55:54.415Z,56.46
2022-12-14T01:58:29.447Z,56.32
2022-12-14T02:00:59.020Z,56.60
2022-12-14T02:03:26.346Z,56.50
2022-12-14T02:05:55.821Z,56.47
2022-12-14T02:08:24.254Z,56.05
2022-12-14T02:10:52.203Z,56.04
2022-12-14T02:13:30.052Z,56.22
2022-12-14T02:15:57.294Z,56.28
2022-12-14T02:18:25.404Z,56.53
2022-12-14T02:21:12.306Z,56.55
2022-12-14T02:23:41.907Z,56.74
2022-12-14T02:26:11.736Z,56.54
2022-12-14T02:28:53.013Z,56.18
2022-12-14T02:31:20.142Z,56.45
2022-12-14T02:34:02.783Z,56.22
2022-12-14T02:36:48.480Z,56.47
2022-12-14T02:39:24.362Z,56.28
2022-12-14T02:42:10.413Z,56.70
2022-12-14T02:44:37.758Z,57.02
2022-12-14T02:47:04.713Z,56.78
2022-12-14T02:49:37.764Z,56.46
2022-12-14T02:52:05.763Z,56.71
2022-12-14T02:54:42.346Z,56.72
2022-12-14T02:57:17.856Z,56.53
2022-12-14T02:59:44.714Z,56.16
2022-12-14T03:02:13.987Z,56.44
2022-12-14T03:04:46.402Z,56.27
2022-12-14T03:07:42.765Z,56.53
2022-12-14T03:10:14.607Z,56.77
2022-12-14T03:12:45.225Z,56.38
2022-12-14T03:15:15.867Z,56.60
2022-12-14T03:17:43.829Z,56.28
2022-12-14T03:20:21.912Z,56.26
2022-12-14T03:22:52.829Z,56.36
2022-12-14T03:25:22.440Z,56.28
2022-12-14T03:27:55.814Z,56.47
2022-12-14T03:30:51.301Z,56.12
2022-12-14T03:33:18.745Z,55.77
2022-12-14T03:36:06.212Z,56.32
2022-12-14T03:38:39.760Z,56.27
2022-12-14T03:41:06.302Z,55.90
2022-12-14T03:44:02.259Z,56.02
2022-12-14T03:46:29.467Z,56.46
2022-12-14T03:49:00.544Z,56.54
2022-12-14T03:51:27.279Z,56.25
2022-12-14T03:53:54.180Z,56.20
2022-12-14T03:56:32.799Z,56.13
2022-12-14T03:58:59.946Z,56.61
2022-12-14T04:01:41.313Z,56.40
2022-12-14T04:04:20.091Z,56.26
2022-12-14T04:06:53.474Z,56.42
2022-12-14T04:09:23.134Z,56.15
2022-12-14T04:12:10.640Z,56.28
2022-12-14T04:14:58.136Z,56.11
2022-12-14T04:17:50.472Z,56.53
2022-12-14T04:20:22.834Z,56.07
2022-12-14T04:22:53.265Z,56.14
2022-12-14T04:25:44.653Z,56.45
2022-12-14T04:28:42.084Z,56.52
2022-12-14T04:31:09.838Z,56.26
2022-12-14T04:33:48.964Z,56.10
2022-12-14T04:36:18.706Z,56.54
2022-12-14T04:38:47.269Z,56.45
2022-12-14T04:41:17.902Z,56.57
2022-12-14T04:43:45.331Z,56.40
2022-12-14T04:46:17.922Z,56.52
2022-12-14T04:49:03.339Z,56.67
2022-12-14T04:51:35.822Z,56.61
2022-12-14T04:54:14.458Z,56.85
2022-12-14T04:56:44.410Z,56.83
2022-12-14T04:59:10.949Z,56.85
2022-12-14T05:01:56.514Z,57.13
2022-12-14T05:04:30.008Z,56.81
2022-12-14T05:07:04.834Z,56.94
2022-12-14T05:09:39.293Z,57.19
2022-12-14T05:12:24.504Z,56.61
2022-12-14T05:14:57.525Z,56.82
2022-12-14T05:17:24.250Z,56.33
2022-12-14T05:19:51.255Z,56.29
2022-12-14T05:22:18.340Z,56.47
2022-12-14T05:24:44.857Z,56.37
2022-12-14T05:27:11.342Z,56.33
2022-12-14T05:29:38.776Z,56.57
2022-12-14T05:32:09.100Z,56.42
2022-12-14T05:34:36.000Z,56.50
2022-12-14T05:37:03.041Z,56.14
2022-12-14T05:39:29.501Z,56.35
2022-12-14T05:41:56.003Z,56.57
2022-12-14T05:44:22.467Z,56.92
2022-12-14T05:46:50.228Z,56.81
2022-12-14T05:49:16.531Z,56.82
2022-12-14T05:51:42.811Z,56.42
2022-12-14T05:54:09.328Z,56.64
2022-12-14T05:56:35.689Z,56.31
2022-12-14T05:59:02.583Z,56.83
2022-12-14T06:01:29.178Z,56.82
2022-12-14T06:03:55.679Z,56.86
2022-12-14T06:06:22.133Z,57.28
2022-12-14T06:08:48.852Z,56.75
2022-12-14T06:11:16.730Z,56.31
2022-12-14T06:13:43.604Z,56.40
2022-12-14T06:16:20.638Z,56.38
2022-12-14T06:18:51.842Z,56.41
2022-12-14T06:21:19.410Z,56.41
2022-12-14T06:23:45.935Z,56.43
2022-12-14T06:26:12.807Z,56.38
2022-12-14T06:28:39.604Z,55.00
2022-12-14T06:31:06.635Z,55.25
2022-12-14T06:33:35.107Z,56.13
2022-12-14T06:36:02.054Z,56.74
2022-12-14T06:38:28.594Z,56.69
2022-12-14T06:40:55.172Z,56.60
2022-12-14T06:43:24.310Z,56.60
2022-12-14T06:45:50.750Z,56.99
2022-12-14T06:48:17.424Z,56.97
2022-12-14T06:50:44.106Z,56.47
2022-12-14T06:53:13.866Z,56.27
2022-12-14T06:55:40.214Z,55.95
2022-12-14T06:58:06.849Z,55.95
2022-12-14T07:00:33.522Z,56.07
2022-12-14T07:03:00.111Z,55.95
2022-12-14T07:05:26.931Z,56.48
2022-12-14T07:07:53.477Z,56.64
2022-12-14T07:10:19.936Z,56.58
2022-12-14T07:12:46.648Z,56.72
2022-12-14T07:15:13.396Z,56.43
2022-12-14T07:17:39.927Z,56.18
2022-12-14T07:20:06.978Z,55.95
2022-12-14T07:22:33.996Z,55.89
2022-12-14T07:25:00.470Z,55.69
2022-12-14T07:27:27.002Z,55.75
2022-12-14T07:29:53.367Z,55.66
2022-12-14T07:32:20.306Z,56.00
2022-12-14T07:34:48.097Z,56.08
2022-12-14T07:37:15.024Z,56.16
2022-12-14T07:39:41.449Z,56.09
2022-12-14T07:42:08.540Z,56.28
2022-12-14T07:44:35.164Z,56.37
2022-12-14T07:47:02.888Z,56.42
2022-12-14T07:49:32.642Z,56.54
2022-12-14T07:51:59.359Z,56.48
2022-12-14T07:54:26.506Z,56.52
2022-12-14T07:56:53.261Z,56.72
2022-12-14T07:59:21.172Z,56.23
2022-12-14T08:01:47.863Z,56.22
2022-12-14T08:04:16.460Z,56.14
2022-12-14T08:06:43.589Z,56.20
2022-12-14T08:09:11.603Z,56.20
2022-12-14T08:11:38.686Z,56.31
2022-12-14T08:14:07.672Z,56.21
2022-12-14T08:16:34.562Z,55.52
2022-12-14T08:19:01.406Z,56.08
2022-12-14T08:21:28.700Z,56.01
2022-12-14T08:23:55.780Z,55.56
2022-12-14T08:26:23.027Z,55.38
2022-12-14T08:28:49.480Z,55.40
2022-12-14T08:31:17.547Z,54.72
2022-12-14T08:33:44.524Z,55.03
2022-12-14T08:36:15.475Z,54.81
2022-12-14T08:38:42.577Z,54.78
2022-12-14T08:41:10.214Z,55.27
2022-12-14T08:43:38.189Z,55.16
2022-12-14T08:46:05.462Z,55.61
2022-12-14T08:48:32.447Z,55.49
2022-12-14T08:51:02.867Z,55.12
2022-12-14T08:53:29.499Z,54.54
2022-12-14T08:56:00.008Z,54.45
2022-12-14T08:58:27.086Z,54.26
2022-12-14T09:01:00.053Z,54.19
2022-12-14T09:03:27.207Z,53.93
2022-12-14T09:05:55.417Z,53.94
2022-12-14T09:08:22.602Z,54.06
2022-12-14T09:10:50.665Z,54.31
2022-12-14T09:13:17.250Z,54.29
2022-12-14T09:15:44.020Z,54.63
2022-12-14T09:18:10.472Z,54.33
2022-12-14T09:20:36.848Z,54.22
2022-12-14T09:23:03.300Z,54.23
2022-12-14T09:25:30.217Z,54.19
2022-12-14T09:27:56.895Z,54.36
2022-12-14T09:30:26.790Z,54.55
2022-12-14T09:32:53.512Z,54.47
2022-12-14T09:35:19.981Z,54.38
2022-12-14T09:37:46.982Z,54.29
2022-12-14T09:40:14.083Z,54.43
2022-12-14T09:42:54.887Z,54.05
2022-12-14T09:45:21.944Z,53.39
2022-12-14T09:48:13.921Z,53.39
2022-12-14T09:50:40.526Z,53.13
2022-12-14T09:53:08.015Z,52.72
2022-12-14T09:55:37.259Z,52.55
2022-12-14T09:58:03.550Z,52.28
2022-12-14T10:00:36.044Z,52.41
2022-12-14T10:03:06.642Z,52.08
2022-12-14T10:05:52.459Z,52.05
2022-12-14T10:08:28.411Z,51.49
2022-12-14T10:11:00.960Z,52.07
2022-12-14T10:13:46.133Z,51.92
2022-12-14T10:16:31.717Z,52.00
2022-12-14T10:19:16.927Z,51.66
2022-12-14T10:21:52.359Z,51.08
2022-12-14T10:24:41.911Z,51.20
2022-12-14T10:27:09.234Z,51.36
2022-12-14T10:29:42.853Z,51.05
2022-12-14T10:32:09.619Z,50.91
2022-12-14T10:34:36.162Z,50.58
2022-12-14T10:37:12.264Z,50.42
2022-12-14T10:40:18.552Z,50.74
2022-12-14T10:43:07.760Z,50.67
2022-12-14T10:45:52.955Z,50.36
2022-12-14T10:48:28.635Z,49.72
2022-12-14T10:50:59.852Z,49.58
2022-12-14T10:53:29.202Z,49.83
2022-12-14T10:55:58.823Z,49.77
2022-12-14T10:58:25.263Z,49.74
2022-12-14T11:00:53.150Z,49.64
2022-12-14T11:03:19.705Z,49.58
2022-12-14T11:05:59.225Z,49.29
2022-12-14T11:08:49.026Z,49.22
2022-12-14T11:11:19.463Z,48.87
2022-12-14T11:13:54.173Z,49.48
2022-12-14T11:16:30.298Z,49.38
2022-12-14T11:19:01.852Z,48.35
2022-12-14T11:21:36.358Z,48.13
2022-12-14T11:24:06.461Z,48.07
2022-12-14T11:26:33.133Z,47.71
2022-12-14T11:29:01.087Z,47.63
2022-12-14T11:31:37.967Z,48.08
2022-12-14T11:34:05.969Z,47.95
2022-12-14T11:36:36.984Z,47.99
2022-12-14T11:39:18.914Z,47.52
2022-12-14T11:41:47.551Z,47.33
2022-12-14T11:44:13.823Z,47.27
2022-12-14T11:47:00.473Z,47.18
2022-12-14T11:49:33.132Z,47.16
2022-12-14T11:52:02.574Z,47.05
2022-12-14T11:54:29.206Z,46.83
2022-12-14T11:57:14.194Z,46.65
2022-12-14T11:59:50.072Z,46.35
2022-12-14T12:02:22.285Z,46.48
2022-12-14T12:04:52.697Z,46.43
2022-12-14T12:07:45.834Z,46.81
2022-12-14T12:10:12.105Z,46.96
2022-12-14T12:12:38.645Z,47.44
2022-12-14T12:15:05.652Z,47.19
2022-12-14T12:17:40.372Z,47.08
2022-12-14T12:20:33.240Z,47.15
2022-12-14T12:23:07.106Z,46.91
2022-12-14T12:25:37.435Z,46.61
2022-12-14T12:28:14.758Z,46.25
2022-12-14T12:30:44.042Z,46.14
2022-12-14T12:33:17.885Z,45.92
2022-12-14T12:35:55.158Z,45.85
2022-12-14T12:38:27.619Z,46.33
2022-12-14T12:41:13.330Z,46.14
2022-12-14T12:43:43.635Z,46.74
2022-12-14T12:46:28.412Z,46.54
2022-12-14T12:49:02.454Z,46.28
2022-12-14T12:51:31.263Z,46.20
2022-12-14T12:54:04.716Z,46.17
2022-12-14T12:56:37.214Z,46.43
2022-12-14T12:59:03.989Z,46.53
2022-12-14T13:01:43.651Z,46.45
2022-12-14T13:04:19.895Z,46.73
2022-12-14T13:06:50.549Z,46.84
2022-12-14T13:09:29.088Z,46.63
2022-12-14T13:11:55.498Z,46.47
2022-12-14T13:14:21.774Z,46.80
2022-12-14T13:16:50.369Z,47.02
2022-12-14T13:22:14.896Z,47.11
2022-12-14T13:24:42.535Z,47.01
2022-12-14T13:27:32.178Z,47.33
2022-12-14T13:30:01.802Z,47.44
2022-12-14T13:32:41.469Z,47.51
2022-12-14T13:35:18.608Z,47.47
2022-12-14T13:38:03.745Z,47.42
2022-12-14T13:40:30.059Z,47.01
2022-12-14T13:42:56.319Z,46.84
2022-12-14T13:45:27.808Z,46.53
2022-12-14T13:47:55.572Z,46.70
2022-12-14T13:50:35.829Z,46.54
2022-12-14T13:53:04.599Z,46.61
2022-12-14T13:55:32.971Z,46.91
2022-12-14T13:58:29.389Z,46.48
2022-12-14T14:00:55.940Z,46.88
2022-12-14T14:03:34.808Z,46.77
2022-12-14T14:06:20.181Z,46.79
2022-12-14T14:08:49.272Z,46.84
2022-12-14T14:14:31.581Z,47.36
2022-12-14T14:17:00.551Z,47.52
2022-12-14T14:19:27.761Z,47.13
2022-12-14T14:24:52.884Z,47.47
2022-12-14T14:27:20.528Z,47.24
2022-12-14T14:29:49.557Z,47.40
2022-12-14T14:32:25.100Z,47.85
2022-12-14T14:34:51.873Z,47.70
2022-12-14T14:37:21.421Z,47.89
2022-12-14T14:40:21.595Z,47.87
2022-12-14T14:43:17.575Z,47.99
2022-12-14T14:45:51.706Z,48.25
2022-12-14T14:48:23.206Z,48.79
2022-12-14T14:50:57.102Z,49.17
2022-12-14T14:53:29.275Z,49.06
2022-12-14T14:56:00.298Z,49.51
2022-12-14T14:58:26.741Z,49.34
2022-12-14T15:00:53.113Z,49.38
2022-12-14T15:03:22.370Z,49.60
2022-12-14T15:05:49.638Z,49.81
2022-12-14T15:08:18.484Z,50.09
2022-12-14T15:10:47.978Z,50.61
2022-12-14T15:13:37.315Z,51.20
2022-12-14T15:16:03.819Z,51.08
2022-12-14T15:18:31.452Z,50.79
2022-12-14T15:20:57.728Z,51.25
2022-12-14T15:23:24.804Z,51.05
2022-12-14T15:25:59.249Z,52.05
2022-12-14T15:28:26.308Z,52.36
2022-12-14T15:30:55.158Z,52.21
2022-12-14T15:33:27.485Z,52.41
2022-12-14T15:35:54.379Z,52.98
2022-12-14T15:38:30.506Z,53.14
2022-12-14T15:41:16.674Z,53.27
2022-12-14T15:43:44.842Z,53.50
2022-12-14T15:46:14.698Z,53.68
2022-12-14T15:48:41.033Z,53.20
2022-12-14T15:51:11.762Z,52.23
2022-12-14T15:53:38.203Z,52.25
2022-12-14T15:56:15.219Z,52.09
2022-12-14T15:58:43.556Z,52.32
2022-12-14T16:01:13.906Z,52.77
2022-12-14T16:03:42.593Z,54.15
2022-12-14T16:06:09.961Z,54.19
2022-12-14T16:08:37.423Z,54.31
2022-12-14T16:11:13.364Z,53.79
2022-12-14T16:13:40.926Z,53.59
2022-12-14T16:16:09.374Z,54.07
2022-12-14T16:18:40.162Z,54.65
2022-12-14T16:21:06.686Z,54.37
2022-12-14T16:23:36.896Z,54.58
2022-12-14T16:26:14.859Z,54.56
2022-12-14T16:28:41.713Z,54.94
2022-12-14T16:31:17.737Z,54.63
2022-12-14T16:33:44.453Z,54.97
2022-12-14T16:36:20.048Z,54.52
2022-12-14T16:38:55.402Z,55.02
2022-12-14T16:41:33.907Z,55.21
2022-12-14T16:44:00.565Z,55.59
2022-12-14T16:46:27.257Z,55.79
2022-12-14T16:49:14.122Z,56.19
2022-12-14T16:54:32.306Z,56.19
2022-12-14T16:57:01.486Z,55.74
2022-12-14T16:59:30.611Z,55.23
2022-12-14T17:01:57.639Z,55.04
2022-12-14T17:04:31.605Z,55.31
2022-12-14T17:06:58.211Z,55.00
2022-12-14T17:09:28.617Z,55.41
2022-12-14T17:11:57.674Z,55.46
2022-12-14T17:14:24.496Z,55.60
2022-12-14T17:16:55.673Z,55.38
2022-12-14T17:19:31.126Z,55.29
2022-12-14T17:21:59.809Z,55.26
2022-12-14T17:24:27.307Z,55.06
2022-12-14T17:26:53.848Z,55.45
2022-12-14T17:29:22.077Z,55.47
2022-12-14T17:31:50.320Z,56.18
2022-12-14T17:34:17.855Z,56.38
2022-12-14T17:36:44.794Z,56.00
2022-12-14T17:39:11.401Z,55.91
2022-12-14T17:41:39.679Z,55.64
2022-12-14T17:44:06.332Z,55.76
2022-12-14T17:46:32.998Z,55.57
2022-12-14T17:49:05.937Z,55.79
2022-12-14T17:51:39.750Z,55.91
2022-12-14T17:54:06.141Z,55.87
2022-12-14T17:56:32.558Z,56.20
2022-12-14T17:58:59.018Z,56.20
2022-12-14T18:01:26.861Z,56.67
2022-12-14T18:03:53.645Z,55.95
2022-12-14T18:06:20.011Z,55.84
2022-12-14T18:08:47.555Z,55.61
2022-12-14T18:11:18.528Z,56.02
2022-12-14T18:13:47.322Z,56.10
2022-12-14T18:16:18.092Z,56.15
2022-12-14T18:18:49.949Z,56.19
2022-12-14T18:21:28.753Z,56.40
2022-12-14T18:23:58.752Z,56.27
2022-12-14T18:26:25.314Z,56.17
2022-12-14T18:28:58.359Z,56.12
2022-12-14T18:31:28.470Z,55.62
2022-12-14T18:33:55.815Z,55.81
2022-12-14T18:36:24.192Z,55.52
2022-12-14T18:38:52.150Z,55.39
2022-12-14T18:41:21.480Z,55.58
2022-12-14T18:43:49.795Z,55.34
2022-12-14T18:46:17.177Z,55.34
2022-12-14T18:48:44.899Z,55.20
2022-12-14T18:51:16.397Z,55.33
2022-12-14T18:53:43.586Z,55.28
2022-12-14T18:56:11.635Z,55.13
2022-12-14T18:58:42.206Z,55.34
2022-12-14T19:01:14.055Z,55.41
2022-12-14T19:03:41.286Z,55.21
2022-12-14T19:06:43.135Z,55.25
2022-12-14T19:08:58.813Z,55.19
2022-12-14T19:11:31.553Z,55.67
2022-12-14T19:13:59.203Z,55.34
2022-12-14T19:16:26.162Z,55.69
2022-12-14T19:18:53.261Z,55.68
2022-12-14T19:21:27.907Z,55.27
2022-12-14T19:23:55.840Z,55.17
2022-12-14T19:26:22.207Z,55.74
2022-12-14T19:28:49.842Z,56.25
2022-12-14T19:31:16.259Z,56.65
2022-12-14T19:33:42.843Z,56.46
2022-12-14T19:36:09.473Z,56.61
2022-12-14T19:38:36.750Z,56.26
2022-12-14T19:41:05.575Z,55.71
2022-12-14T19:43:33.303Z,56.08
2022-12-14T19:46:02.145Z,56.15
2022-12-14T19:48:30.950Z,56.45
2022-12-14T19:50:57.854Z,56.94
2022-12-14T19:53:25.108Z,57.28
2022-12-14T19:55:52.677Z,57.70
2022-12-14T19:58:25.516Z,57.93
2022-12-14T20:00:52.274Z,57.78
2022-12-14T20:03:20.292Z,57.45
2022-12-14T20:05:55.087Z,57.16
2022-12-14T20:08:22.530Z,57.54
2022-12-14T20:10:50.533Z,57.49
2022-12-14T20:13:18.986Z,57.28
2022-12-14T20:15:49.862Z,56.78
2022-12-14T20:18:16.467Z,56.73
2022-12-14T20:20:43.530Z,56.51
2022-12-14T20:23:10.835Z,56.17
2022-12-14T20:25:37.507Z,56.24
2022-12-14T20:28:04.460Z,56.15
2022-12-14T20:30:31.365Z,56.05
2022-12-14T20:32:58.424Z,56.18
2022-12-14T20:35:25.352Z,56.48
2022-12-14T20:37:56.949Z,56.24
2022-12-14T20:40:24.041Z,56.64
2022-12-14T20:42:51.818Z,56.70
2022-12-14T20:45:18.327Z,56.82
2022-12-14T20:47:45.594Z,56.46
2022-12-14T20:50:12.659Z,56.47
2022-12-14T20:52:39.209Z,56.09
2022-12-14T20:55:05.754Z,56.56
2022-12-14T20:57:33.277Z,56.50
2022-12-14T20:59:59.883Z,56.46
2022-12-14T21:02:26.605Z,56.83
2022-12-14T21:05:00.447Z,56.70
2022-12-14T21:07:27.198Z,56.83
2022-12-14T21:09:53.902Z,56.74
2022-12-14T21:12:23.361Z,56.76
2022-12-14T21:14:54.352Z,56.83
2022-12-14T21:17:21.844Z,56.96
2022-12-14T21:19:48.405Z,56.66
2022-12-14T21:22:16.426Z,56.90
2022-12-14T21:27:32.974Z,56.56
2022-12-14T21:30:03.321Z,56.84
2022-12-14T21:32:29.797Z,56.88
2022-12-14T21:34:59.086Z,56.71
2022-12-14T21:37:28.894Z,56.59
2022-12-14T21:39:58.009Z,56.93
2022-12-14T21:42:27.831Z,56.78
2022-12-14T21:44:55.486Z,56.55
2022-12-14T21:47:23.685Z,56.71
2022-12-14T21:49:50.451Z,56.74
2022-12-14T21:52:20.523Z,56.38
2022-12-14T21:54:47.134Z,56.73
2022-12-14T21:57:33.396Z,56.63
2022-12-14T22:00:00.186Z,56.73
2022-12-14T22:02:26.698Z,56.80
2022-12-14T22:04:56.637Z,56.71
2022-12-14T22:07:24.208Z,56.36
2022-12-14T22:09:50.655Z,56.53
2022-12-14T22:12:17.918Z,56.48
2022-12-14T22:14:44.412Z,56.42
2022-12-14T22:17:11.965Z,56.34
2022-12-14T22:19:38.456Z,56.16
2022-12-14T22:22:05.215Z,56.64
2022-12-14T22:24:32.105Z,56.33
2022-12-14T22:26:59.346Z,56.50
2022-12-14T22:29:25.910Z,56.79
2022-12-14T22:31:52.571Z,57.05
2022-12-14T22:34:21.130Z,57.10
2022-12-14T22:36:48.245Z,57.65
2022-12-14T22:39:14.970Z,57.05
2022-12-14T22:41:41.461Z,57.56
2022-12-14T22:44:09.843Z,57.46
2022-12-14T22:46:36.471Z,57.20
2022-12-14T22:49:04.024Z,57.23
2022-12-14T22:51:30.529Z,57.00
2022-12-14T22:53:57.050Z,57.41
2022-12-14T22:56:23.811Z,57.19
2022-12-14T22:59:09.218Z,57.15
2022-12-14T23:01:36.151Z,57.29
2022-12-14T23:04:02.808Z,57.45
2022-12-14T23:06:29.538Z,57.29
2022-12-14T23:09:14.628Z,57.21
2022-12-14T23:11:59.703Z,56.74
2022-12-14T23:14:44.509Z,56.73
2022-12-14T23:17:30.234Z,56.75
2022-12-14T23:20:15.136Z,56.82
2022-12-14T23:23:00.103Z,56.64
2022-12-14T23:25:44.895Z,56.65
2022-12-14T23:28:29.502Z,56.58
2022-12-14T23:31:14.745Z,56.57
2022-12-14T23:33:59.505Z,56.66
2022-12-14T23:36:44.454Z,56.69
2022-12-14T23:39:29.422Z,56.71
2022-12-14T23:42:14.791Z,56.54
2022-12-14T23:44:59.759Z,56.35
2022-12-14T23:47:44.563Z,56.54
2022-12-14T23:50:34.214Z,56.68
2022-12-14T23:53:25.905Z,56.67
2022-12-14T23:56:10.794Z,56.35
2022-12-14T23:58:55.587Z,56.57
